createdAt,value
2023-02-22T00:01:50.771Z,79.03
2023-02-22T00:04:21.112Z,53.77
2023-02-22T00:06:49.845Z,42.97
2023-02-22T00:09:20.611Z,41.47
2023-02-22T00:11:48.462Z,43.53
2023-02-22T00:14:17.999Z,58.47
2023-02-22T00:16:47.045Z,42.80
2023-02-22T00:19:14.479Z,38.43
2023-02-22T00:21:41.844Z,56.47
2023-02-22T00:24:23.117Z,34.57
2023-02-22T00:26:51.247Z,38.17
2023-02-22T00:29:18.655Z,32.90
2023-02-22T00:31:47.430Z,29.50
2023-02-22T00:34:16.338Z,36.90
2023-02-22T00:36:46.058Z,108.17
2023-02-22T00:39:13.459Z,44.50
2023-02-22T00:41:41.104Z,45.13
2023-02-22T00:44:08.588Z,28.07
2023-02-22T00:46:36.095Z,40.50
2023-02-22T00:49:05.240Z,33.17
2023-02-22T00:51:33.858Z,40.30
2023-02-22T00:54:01.369Z,35.37
2023-02-22T00:56:29.107Z,39.17
2023-02-22T00:58:56.718Z,35.10
2023-02-22T01:01:24.561Z,25.00
2023-02-22T01:03:52.372Z,36.83
2023-02-22T01:06:22.651Z,28.97
2023-02-22T01:08:50.525Z,32.50
2023-02-22T01:11:18.555Z,31.60
2023-02-22T01:13:46.246Z,30.20
2023-02-22T01:16:13.994Z,30.33
2023-02-22T01:18:41.512Z,24.50
2023-02-22T01:21:08.940Z,23.50
2023-02-22T01:23:37.721Z,23.03
2023-02-22T01:26:06.079Z,25.20
2023-02-22T01:28:33.703Z,23.70
2023-02-22T01:31:02.815Z,19.30
2023-02-22T01:33:30.377Z,19.40
2023-02-22T01:35:58.234Z,23.50
2023-02-22T01:38:25.638Z,25.37
2023-02-22T01:40:54.558Z,22.73
2023-02-22T01:43:23.351Z,17.33
2023-02-22T01:45:53.999Z,21.70
2023-02-22T01:48:24.828Z,16.20
2023-02-22T01:50:55.131Z,19.07
2023-02-22T01:53:24.525Z,17.23
2023-02-22T01:55:52.557Z,16.70
2023-02-22T01:58:22.064Z,15.90
2023-02-22T02:00:49.496Z,15.33
2023-02-22T02:03:19.240Z,18.07
2023-02-22T02:05:46.859Z,15.80
2023-02-22T02:08:17.980Z,15.60
2023-02-22T02:10:45.405Z,17.20
2023-02-22T02:13:12.872Z,15.03
2023-02-22T02:15:41.780Z,15.27
2023-02-22T02:18:11.657Z,17.10
2023-02-22T02:20:43.259Z,17.13
2023-02-22T02:23:18.556Z,15.37
2023-02-22T02:26:00.528Z,16.23
2023-02-22T02:28:34.425Z,17.03
2023-02-22T02:31:20.400Z,15.23
2023-02-22T02:33:52.000Z,15.67
2023-02-22T02:36:20.793Z,15.27
2023-02-22T02:38:51.715Z,14.47
2023-02-22T02:41:21.687Z,16.90
2023-02-22T02:43:53.010Z,16.03
2023-02-22T02:46:23.975Z,14.43
2023-02-22T02:48:56.878Z,15.43
2023-02-22T02:51:25.910Z,15.30
2023-02-22T02:53:53.894Z,14.80
2023-02-22T02:56:23.349Z,13.53
2023-02-22T02:58:52.880Z,13.00
2023-02-22T03:01:24.652Z,14.80
2023-02-22T03:04:06.821Z,13.67
2023-02-22T03:06:44.205Z,12.00
2023-02-22T03:09:15.344Z,12.93
2023-02-22T03:11:48.331Z,13.20
2023-02-22T03:14:17.903Z,11.83
2023-02-22T03:16:47.248Z,12.57
2023-02-22T03:19:20.368Z,12.97
2023-02-22T03:21:52.602Z,14.03
2023-02-22T03:24:22.543Z,12.43
2023-02-22T03:26:53.598Z,16.03
2023-02-22T03:29:22.610Z,14.60
2023-02-22T03:31:53.368Z,12.23
2023-02-22T03:34:23.884Z,13.40
2023-02-22T03:36:55.926Z,14.53
2023-02-22T03:39:30.837Z,12.80
2023-02-22T03:41:59.349Z,14.73
2023-02-22T03:44:28.786Z,12.87
2023-02-22T03:46:57.658Z,13.60
2023-02-22T03:49:31.037Z,12.67
2023-02-22T03:51:59.208Z,11.43
2023-02-22T03:54:27.417Z,11.40
2023-02-22T03:56:56.962Z,9.90
2023-02-22T03:59:27.449Z,10.80
2023-02-22T04:01:55.109Z,13.43
2023-02-22T04:04:24.035Z,12.33
2023-02-22T04:06:53.205Z,11.10
2023-02-22T04:09:21.256Z,11.20
2023-02-22T04:11:48.810Z,12.73
2023-02-22T04:14:16.516Z,14.40
2023-02-22T04:16:44.048Z,11.77
2023-02-22T04:19:11.672Z,14.73
2023-02-22T04:21:39.133Z,13.20
2023-02-22T04:24:08.180Z,12.00
2023-02-22T04:26:35.630Z,11.20
2023-02-22T04:29:04.253Z,10.83
2023-02-22T04:31:31.777Z,11.87
2023-02-22T04:33:59.245Z,11.47
2023-02-22T04:36:27.174Z,11.43
2023-02-22T04:38:55.057Z,11.53
2023-02-22T04:41:25.486Z,9.57
2023-02-22T04:43:53.058Z,12.60
2023-02-22T04:46:20.589Z,11.07
2023-02-22T04:48:48.008Z,12.70
2023-02-22T04:51:15.927Z,12.20
2023-02-22T04:53:43.498Z,10.70
2023-02-22T04:56:10.980Z,10.13
2023-02-22T04:58:39.809Z,10.43
2023-02-22T05:01:08.150Z,8.43
2023-02-22T05:03:38.418Z,9.43
2023-02-22T05:06:06.084Z,11.97
2023-02-22T05:08:33.473Z,10.50
2023-02-22T05:11:01.225Z,10.10
2023-02-22T05:13:28.704Z,11.67
2023-02-22T05:15:57.588Z,9.80
2023-02-22T05:18:25.054Z,12.83
2023-02-22T05:20:52.593Z,13.23
2023-02-22T05:23:20.063Z,12.50
2023-02-22T05:25:47.617Z,13.20
2023-02-22T05:28:16.720Z,12.77
2023-02-22T05:30:44.260Z,10.70
2023-02-22T05:33:13.177Z,10.93
2023-02-22T05:35:40.632Z,12.33
2023-02-22T05:38:08.507Z,12.20
2023-02-22T05:40:36.349Z,11.57
2023-02-22T05:43:03.849Z,10.27
2023-02-22T05:45:31.268Z,11.20
2023-02-22T05:47:58.879Z,11.40
2023-02-22T05:50:27.672Z,10.57
2023-02-22T05:52:55.318Z,13.00
2023-02-22T05:55:23.926Z,15.97
2023-02-22T05:57:51.408Z,14.60
2023-02-22T06:00:23.191Z,10.77
2023-02-22T06:02:54.586Z,10.93
2023-02-22T06:05:22.170Z,12.03
2023-02-22T06:07:51.053Z,12.43
2023-02-22T06:10:18.741Z,11.80
2023-02-22T06:12:46.268Z,11.93
2023-02-22T06:15:13.670Z,9.87
2023-02-22T06:17:41.844Z,12.70
2023-02-22T06:20:10.145Z,12.60
2023-02-22T06:22:37.660Z,11.17
2023-02-22T06:25:06.974Z,12.20
2023-02-22T06:27:34.970Z,16.13
2023-02-22T06:30:03.794Z,11.23
2023-02-22T06:32:31.198Z,12.10
2023-02-22T06:34:58.680Z,10.17
2023-02-22T06:37:26.049Z,11.60
2023-02-22T06:39:53.439Z,14.57
2023-02-22T06:42:22.248Z,11.83
2023-02-22T06:44:51.510Z,10.43
2023-02-22T06:47:19.211Z,14.83
2023-02-22T06:49:46.660Z,12.57
2023-02-22T06:52:14.023Z,12.13
2023-02-22T06:54:41.432Z,12.13
2023-02-22T06:57:10.173Z,13.43
2023-02-22T06:59:38.991Z,19.07
2023-02-22T07:02:06.366Z,13.80
2023-02-22T07:04:35.102Z,12.30
2023-02-22T07:07:03.556Z,14.03
2023-02-22T07:09:31.187Z,14.47
2023-02-22T07:11:58.608Z,11.53
2023-02-22T07:14:26.015Z,13.80
2023-02-22T07:16:54.813Z,13.37
2023-02-22T07:19:22.210Z,14.53
2023-02-22T07:21:50.825Z,16.30
2023-02-22T07:24:18.242Z,17.20
2023-02-22T07:26:45.672Z,16.73
2023-02-22T07:29:13.111Z,15.07
2023-02-22T07:31:40.606Z,14.10
2023-02-22T07:34:09.363Z,13.83
2023-02-22T07:36:36.875Z,15.93
2023-02-22T07:39:04.354Z,16.40
2023-02-22T07:41:31.769Z,15.13
2023-02-22T07:43:59.195Z,21.80
2023-02-22T07:46:26.589Z,17.77
2023-02-22T07:48:54.020Z,19.83
2023-02-22T07:51:22.820Z,17.80
2023-02-22T07:53:50.246Z,18.80
2023-02-22T07:56:18.196Z,17.10
2023-02-22T07:58:45.635Z,17.60
2023-02-22T08:01:13.070Z,20.80
2023-02-22T08:03:40.601Z,19.87
2023-02-22T08:06:08.642Z,17.73
2023-02-22T08:08:37.536Z,17.37
2023-02-22T08:11:05.735Z,19.30
2023-02-22T08:13:33.375Z,20.93
2023-02-22T08:16:00.893Z,17.80
2023-02-22T08:18:28.422Z,18.77
2023-02-22T08:20:56.064Z,17.10
2023-02-22T08:23:25.219Z,19.63
2023-02-22T08:25:54.189Z,27.60
2023-02-22T08:28:23.520Z,22.17
2023-02-22T08:30:51.368Z,25.67
2023-02-22T08:33:19.724Z,29.70
2023-02-22T08:35:49.452Z,25.80
2023-02-22T08:38:17.874Z,28.53
2023-02-22T08:40:45.321Z,28.50
2023-02-22T08:43:14.440Z,33.37
2023-02-22T08:45:41.957Z,28.53
2023-02-22T08:48:09.392Z,31.27
2023-02-22T08:50:38.077Z,30.47
2023-02-22T08:53:06.255Z,28.77
2023-02-22T08:55:34.468Z,29.90
2023-02-22T08:58:03.117Z,26.70
2023-02-22T09:00:33.759Z,25.93
2023-02-22T09:03:01.433Z,25.60
2023-02-22T09:05:31.207Z,25.23
2023-02-22T09:07:59.029Z,25.63
2023-02-22T09:10:28.089Z,26.50
2023-02-22T09:12:56.381Z,23.80
2023-02-22T09:15:24.596Z,27.60
2023-02-22T09:17:53.534Z,25.53
2023-02-22T09:20:21.987Z,22.10
2023-02-22T09:22:50.010Z,27.00
2023-02-22T09:25:18.064Z,24.77
2023-02-22T09:27:47.896Z,21.47
2023-02-22T09:30:19.714Z,27.13
2023-02-22T09:32:47.388Z,22.53
2023-02-22T09:35:16.237Z,24.50
2023-02-22T09:37:45.038Z,22.80
2023-02-22T09:40:17.535Z,21.50
2023-02-22T09:42:49.557Z,25.40
2023-02-22T09:45:18.960Z,16.13
2023-02-22T09:47:48.109Z,19.60
2023-02-22T09:50:18.034Z,22.73
2023-02-22T09:52:53.919Z,16.20
2023-02-22T09:55:28.779Z,17.23
2023-02-22T09:57:57.984Z,18.70
2023-02-22T10:00:32.401Z,18.40
2023-02-22T10:03:06.901Z,18.87
2023-02-22T10:05:39.668Z,19.20
2023-02-22T10:08:12.670Z,17.63
2023-02-22T10:10:41.793Z,18.23
2023-02-22T10:13:14.553Z,14.80
2023-02-22T10:15:47.451Z,18.37
2023-02-22T10:18:35.648Z,15.17
2023-02-22T10:21:09.100Z,19.33
2023-02-22T10:23:39.553Z,15.03
2023-02-22T10:26:14.749Z,14.83
2023-02-22T10:28:44.171Z,15.13
2023-02-22T10:31:17.968Z,22.07
2023-02-22T10:33:48.339Z,15.60
2023-02-22T10:36:19.956Z,15.00
2023-02-22T10:38:52.159Z,14.37
2023-02-22T10:41:24.436Z,15.37
2023-02-22T10:43:51.975Z,12.73
2023-02-22T10:46:21.843Z,13.60
2023-02-22T10:48:51.351Z,14.70
2023-02-22T10:51:20.142Z,10.80
2023-02-22T10:53:54.267Z,11.20
2023-02-22T10:56:22.268Z,10.07
2023-02-22T10:58:51.261Z,12.53
2023-02-22T11:01:20.362Z,10.50
2023-02-22T11:03:57.062Z,12.63
2023-02-22T11:06:27.646Z,14.60
2023-02-22T11:09:04.894Z,10.13
2023-02-22T11:11:32.264Z,9.80
2023-02-22T11:14:00.577Z,11.03
2023-02-22T11:16:29.764Z,8.97
2023-02-22T11:19:01.648Z,8.90
2023-02-22T11:21:31.331Z,8.37
2023-02-22T11:24:02.782Z,10.40
2023-02-22T11:26:30.320Z,7.27
2023-02-22T11:28:57.813Z,7.77
2023-02-22T11:31:27.103Z,8.40
2023-02-22T11:36:37.870Z,8.73
2023-02-22T11:39:08.587Z,8.00
2023-02-22T11:41:36.070Z,7.70
2023-02-22T11:44:24.684Z,8.60
2023-02-22T11:46:55.640Z,9.07
2023-02-22T11:49:24.580Z,9.23
2023-02-22T11:52:00.976Z,8.83
2023-02-22T11:54:40.156Z,7.90
2023-02-22T11:57:25.506Z,12.13
2023-02-22T11:59:57.848Z,8.73
2023-02-22T12:02:32.161Z,7.83
2023-02-22T12:05:08.063Z,9.50
2023-02-22T12:07:44.756Z,9.40
2023-02-22T12:10:22.768Z,10.97
2023-02-22T12:12:57.082Z,10.37
2023-02-22T12:15:29.285Z,9.80
2023-02-22T12:18:00.786Z,13.17
2023-02-22T12:20:30.939Z,8.43
2023-02-22T12:23:03.768Z,10.73
2023-02-22T12:25:34.453Z,8.80
2023-02-22T12:28:15.637Z,8.73
2023-02-22T12:30:53.777Z,9.63
2023-02-22T12:33:24.776Z,10.70
2023-02-22T12:35:53.356Z,8.80
2023-02-22T12:38:25.259Z,11.23
2023-02-22T12:40:57.073Z,10.50
2023-02-22T12:43:27.797Z,9.77
2023-02-22T12:45:57.356Z,8.60
2023-02-22T12:48:31.418Z,7.63
2023-02-22T12:51:00.840Z,8.37
2023-02-22T12:53:31.976Z,8.43
2023-02-22T12:56:01.381Z,6.73
2023-02-22T12:58:31.326Z,6.70
2023-02-22T13:01:01.275Z,6.87
2023-02-22T13:03:31.674Z,8.87
2023-02-22T13:06:07.381Z,7.80
2023-02-22T13:08:38.570Z,7.57
2023-02-22T13:11:14.963Z,12.37
2023-02-22T13:13:47.040Z,7.23
2023-02-22T13:16:23.142Z,9.53
2023-02-22T13:18:53.971Z,8.60
2023-02-22T13:21:23.877Z,6.53
2023-02-22T13:23:55.249Z,9.97
2023-02-22T13:26:25.812Z,7.83
2023-02-22T13:28:59.146Z,6.27
2023-02-22T13:31:37.654Z,8.67
2023-02-22T13:34:25.908Z,7.70
2023-02-22T13:37:01.874Z,8.73
2023-02-22T13:39:48.200Z,8.90
2023-02-22T13:42:22.485Z,9.60
2023-02-22T13:45:10.211Z,9.13
2023-02-22T13:48:02.482Z,8.80
2023-02-22T13:50:39.349Z,7.40
2023-02-22T13:53:09.828Z,9.00
2023-02-22T13:55:38.979Z,9.30
2023-02-22T13:58:08.756Z,8.90
2023-02-22T14:00:46.961Z,8.80
2023-02-22T14:03:35.918Z,11.20
2023-02-22T14:06:04.170Z,6.87
2023-02-22T14:08:44.578Z,8.23
2023-02-22T14:11:30.717Z,9.13
2023-02-22T14:14:12.965Z,12.40
2023-02-22T14:16:40.399Z,9.57
2023-02-22T14:19:14.391Z,7.30
2023-02-22T14:21:56.161Z,7.90
2023-02-22T14:24:23.616Z,15.93
2023-02-22T14:26:56.285Z,12.03
2023-02-22T14:29:25.515Z,10.53
2023-02-22T14:32:07.539Z,15.20
2023-02-22T14:34:53.352Z,8.57
2023-02-22T14:37:21.860Z,7.87
2023-02-22T14:39:51.408Z,12.80
2023-02-22T14:42:22.266Z,9.23
2023-02-22T14:44:53.663Z,11.90
2023-02-22T14:47:26.554Z,12.37
2023-02-22T14:49:54.800Z,10.90
2023-02-22T14:52:24.072Z,13.23
2023-02-22T14:54:59.677Z,13.60
2023-02-22T14:57:30.701Z,14.77
2023-02-22T15:00:10.765Z,20.40
2023-02-22T15:02:41.631Z,11.00
2023-02-22T15:05:13.640Z,11.30
2023-02-22T15:07:41.067Z,12.47
2023-02-22T15:10:17.857Z,11.50
2023-02-22T15:12:52.109Z,8.87
2023-02-22T15:15:22.764Z,8.37
2023-02-22T15:17:53.820Z,9.30
2023-02-22T15:20:21.363Z,10.70
2023-02-22T15:22:50.061Z,11.27
2023-02-22T15:25:17.529Z,10.53
2023-02-22T15:27:47.831Z,13.70
2023-02-22T15:30:20.371Z,9.67
2023-02-22T15:33:03.112Z,9.10
2023-02-22T15:35:32.789Z,9.20
2023-02-22T15:38:01.441Z,9.40
2023-02-22T15:40:33.063Z,10.77
2023-02-22T15:43:02.193Z,10.57
2023-02-22T15:45:30.113Z,10.87
2023-02-22T15:47:59.773Z,11.27
2023-02-22T15:50:28.126Z,12.43
2023-02-22T15:52:58.959Z,8.50
2023-02-22T15:55:27.958Z,9.00
2023-02-22T15:57:56.179Z,10.07
2023-02-22T16:00:25.162Z,8.90
2023-02-22T16:02:52.726Z,9.30
2023-02-22T16:05:21.584Z,7.43
2023-02-22T16:07:50.663Z,11.20
2023-02-22T16:10:26.572Z,9.10
2023-02-22T16:13:22.180Z,11.70
2023-02-22T16:16:01.835Z,8.80
2023-02-22T16:18:31.529Z,9.50
2023-02-22T16:21:01.581Z,8.63
2023-02-22T16:23:29.776Z,7.37
2023-02-22T16:26:05.267Z,5.63
2023-02-22T16:28:35.484Z,6.40
2023-02-22T16:31:03.366Z,6.00
2023-02-22T16:33:33.702Z,6.43
2023-02-22T16:36:08.051Z,9.70
2023-02-22T16:38:38.438Z,7.90
2023-02-22T16:41:06.683Z,5.07
2023-02-22T16:43:34.918Z,6.07
2023-02-22T16:46:02.907Z,7.03
2023-02-22T16:48:31.168Z,7.00
2023-02-22T16:51:00.899Z,6.63
2023-02-22T16:53:31.785Z,4.97
2023-02-22T16:56:02.618Z,5.93
2023-02-22T16:58:33.744Z,6.50
2023-02-22T17:01:01.210Z,8.17
2023-02-22T17:03:29.753Z,7.50
2023-02-22T17:05:57.812Z,7.67
2023-02-22T17:08:25.288Z,5.90
2023-02-22T17:10:56.926Z,4.90
2023-02-22T17:13:26.994Z,6.17
2023-02-22T17:15:55.368Z,7.00
2023-02-22T17:18:23.840Z,5.80
2023-02-22T17:20:51.772Z,5.20
2023-02-22T17:23:19.463Z,4.80
2023-02-22T17:25:49.772Z,5.13
2023-02-22T17:28:18.579Z,8.30
2023-02-22T17:30:48.812Z,6.00
2023-02-22T17:33:16.974Z,5.20
2023-02-22T17:35:46.876Z,6.10
2023-02-22T17:38:18.274Z,8.00
2023-02-22T17:40:48.006Z,4.80
2023-02-22T17:43:16.313Z,11.03
2023-02-22T17:45:46.070Z,5.63
2023-02-22T17:48:14.189Z,7.80
2023-02-22T17:50:42.633Z,5.87
2023-02-22T17:53:11.057Z,6.33
2023-02-22T17:55:39.076Z,5.53
2023-02-22T17:58:06.672Z,8.43
2023-02-22T18:00:36.459Z,5.00
2023-02-22T18:03:06.259Z,9.40
2023-02-22T18:05:34.674Z,5.70
2023-02-22T18:08:02.045Z,4.70
2023-02-22T18:10:29.478Z,5.60
2023-02-22T18:12:57.086Z,5.30
2023-02-22T18:15:28.217Z,8.23
2023-02-22T18:17:56.291Z,5.93
2023-02-22T18:20:30.988Z,5.10
2023-02-22T18:22:58.648Z,5.53
2023-02-22T18:25:26.216Z,4.70
2023-02-22T18:27:55.009Z,5.23
2023-02-22T18:30:23.834Z,5.93
2023-02-22T18:32:51.325Z,8.20
2023-02-22T18:35:18.815Z,5.23
2023-02-22T18:37:47.589Z,7.90
2023-02-22T18:40:15.043Z,9.77
2023-02-22T18:42:42.421Z,7.33
2023-02-22T18:45:09.984Z,9.27
2023-02-22T18:47:42.137Z,6.90
2023-02-22T18:50:10.068Z,5.70
2023-02-22T18:52:44.745Z,5.27
2023-02-22T18:55:14.517Z,6.90
2023-02-22T18:57:42.499Z,8.87
2023-02-22T19:00:11.486Z,4.50
2023-02-22T19:02:38.960Z,7.40
2023-02-22T19:05:07.477Z,6.77
2023-02-22T19:07:34.916Z,5.23
2023-02-22T19:10:02.531Z,5.93
2023-02-22T19:12:31.446Z,6.67
2023-02-22T19:14:59.596Z,5.47
2023-02-22T19:17:28.605Z,12.00
2023-02-22T19:19:56.081Z,7.00
2023-02-22T19:22:26.056Z,7.17
2023-02-22T19:24:54.500Z,8.73
2023-02-22T19:27:22.075Z,6.30
2023-02-22T19:29:50.910Z,7.83
2023-02-22T19:32:18.451Z,7.47
2023-02-22T19:34:46.144Z,13.17
2023-02-22T19:37:13.809Z,6.60
2023-02-22T19:39:42.268Z,7.00
2023-02-22T19:42:10.700Z,10.13
2023-02-22T19:44:38.393Z,6.90
2023-02-22T19:47:09.296Z,7.00
2023-02-22T19:49:37.763Z,10.77
2023-02-22T19:52:06.412Z,9.03
2023-02-22T19:54:34.241Z,8.10
2023-02-22T19:57:01.864Z,10.73
2023-02-22T19:59:29.446Z,11.50
2023-02-22T20:01:57.810Z,11.40
2023-02-22T20:04:30.603Z,12.33
2023-02-22T20:06:58.375Z,12.63
2023-02-22T20:09:29.879Z,13.33
2023-02-22T20:11:57.737Z,13.30
2023-02-22T20:14:27.433Z,13.47
2023-02-22T20:16:55.717Z,16.10
2023-02-22T20:19:23.607Z,12.20
2023-02-22T20:21:53.101Z,15.10
2023-02-22T20:24:20.544Z,14.37
2023-02-22T20:26:48.355Z,12.43
2023-02-22T20:29:16.632Z,12.93
2023-02-22T20:31:44.436Z,13.50
2023-02-22T20:34:12.532Z,12.93
2023-02-22T20:36:41.383Z,10.43
2023-02-22T20:39:13.315Z,14.17
2023-02-22T20:41:41.752Z,11.17
2023-02-22T20:44:10.087Z,13.60
2023-02-22T20:46:37.673Z,13.77
2023-02-22T20:49:07.151Z,13.80
2023-02-22T20:51:35.285Z,17.30
2023-02-22T20:54:03.000Z,18.20
2023-02-22T20:56:32.756Z,16.70
2023-02-22T20:59:00.862Z,19.50
2023-02-22T21:01:28.543Z,17.30
2023-02-22T21:04:00.404Z,17.27
2023-02-22T21:06:28.652Z,18.67
2023-02-22T21:08:57.060Z,16.50
2023-02-22T21:11:25.019Z,18.30
2023-02-22T21:13:54.212Z,17.50
2023-02-22T21:16:23.216Z,19.80
2023-02-22T21:18:50.991Z,21.83
2023-02-22T21:21:18.594Z,21.93
2023-02-22T21:23:49.644Z,21.97
2023-02-22T21:26:18.302Z,23.17
2023-02-22T21:28:51.180Z,24.03
2023-02-22T21:31:21.118Z,23.60
2023-02-22T21:33:49.479Z,20.80
2023-02-22T21:36:16.872Z,25.90
2023-02-22T21:38:45.129Z,24.33
2023-02-22T21:41:12.598Z,24.27
2023-02-22T21:43:40.075Z,26.13
2023-02-22T21:46:10.645Z,27.13
2023-02-22T21:48:41.016Z,28.73
2023-02-22T21:51:09.128Z,25.83
2023-02-22T21:53:36.678Z,28.77
2023-02-22T21:56:04.856Z,25.27
2023-02-22T21:58:32.321Z,27.87
2023-02-22T22:01:05.807Z,32.50
2023-02-22T22:03:33.298Z,26.03
2023-02-22T22:06:02.006Z,25.60
2023-02-22T22:08:32.049Z,25.30
2023-02-22T22:10:59.483Z,24.73
2023-02-22T22:13:28.098Z,29.87
2023-02-22T22:15:55.718Z,31.87
2023-02-22T22:18:23.138Z,27.47
2023-02-22T22:20:51.869Z,29.87
2023-02-22T22:23:20.661Z,26.60
2023-02-22T22:25:51.097Z,33.17
2023-02-22T22:28:18.485Z,23.97
2023-02-22T22:30:45.933Z,28.00
2023-02-22T22:33:13.528Z,30.17
2023-02-22T22:35:41.943Z,30.20
2023-02-22T22:38:09.786Z,38.47
2023-02-22T22:40:38.878Z,34.37
2023-02-22T22:43:06.978Z,32.80
2023-02-22T22:45:34.477Z,30.17
2023-02-22T22:48:02.272Z,34.60
2023-02-22T22:50:29.834Z,35.10
2023-02-22T22:52:58.113Z,32.93
2023-02-22T22:55:25.548Z,42.10
2023-02-22T22:57:54.334Z,38.60
2023-02-22T23:00:31.979Z,38.00
2023-02-22T23:02:59.665Z,35.73
2023-02-22T23:05:29.227Z,39.60
2023-02-22T23:07:57.648Z,37.90
2023-02-22T23:10:28.047Z,33.27
2023-02-22T23:12:57.324Z,35.23
2023-02-22T23:15:25.735Z,34.57
2023-02-22T23:17:56.015Z,35.57
2023-02-22T23:20:26.322Z,39.33
2023-02-22T23:22:53.977Z,40.77
2023-02-22T23:25:21.697Z,43.17
2023-02-22T23:27:49.310Z,41.23
2023-02-22T23:30:18.829Z,44.13
2023-02-22T23:32:47.473Z,42.90
2023-02-22T23:35:15.608Z,44.00
2023-02-22T23:37:46.178Z,49.30
2023-02-22T23:40:16.973Z,47.07
2023-02-22T23:42:47.805Z,53.23
2023-02-22T23:45:22.638Z,46.90
2023-02-22T23:47:55.810Z,54.77
2023-02-22T23:50:24.219Z,47.60
2023-02-22T23:52:56.863Z,48.03
2023-02-22T23:55:25.245Z,55.37
2023-02-22T23:57:52.665Z,49.63
